Meteo Giornale » Osservazioni meteo Italia » Decimomannu

ore: 05:55 - Osservazioni Meteo Decimomannu
Lat. 39° 21' N Lon. 8° 58' E Alt. 29 metri s.l.m.

sereno Europe/Rome

21 °C

Sereno

Temp. 24 Ore

21 °C

33 °C

Nord

3.7 Km/h

Dew point 17 °C

Umidità 77 %

Visibilità  10 Km

Il sole sorge alle ore 06:44

Il sole tramonta alle ore 20:08

Data e Ora Cielo e Fenomeni T °C DP °C Um. % Pres. hPa Vis. km Vento km/h
Oggi h: 05:55 sereno Sereno 21 17 77 1016 10 N 3.7
Oggi h: 04:55 sereno Sereno 21 18 82 1016 10 N 5.5
Oggi h: 02:55 sereno Sereno 22 19 83 1016 10 N 7.4
Oggi h: 01:55 sereno Sereno 22 19 83 1016 10 N 3.7
Oggi h: 00:55 sereno Sereno 24 21 83 1016 10 N 3.7
Ieri h: 23:55 sereno Sereno 23 20 83 1017 10 N 5.5
Ieri h: 22:55 poco_nuvoloso Poco Nuvoloso 24 21 83 1016 10 N 1.8
Ieri h: 21:55 poco_nuvoloso Poco Nuvoloso 25 22 83 1016 10 N 3.7
Ieri h: 20:55 poco_nuvoloso Poco Nuvoloso 26 23 83 1016 10 N 5.5
Ieri h: 19:55 poco_nuvoloso Poco Nuvoloso 27 23 78 1015 10 N 5.5
Ieri h: 18:55 nuvoloso Nuvoloso 27 23 78 1015 10 N 5.5
Ieri h: 17:55 nuvoloso Nuvoloso 26 23 83 1016 10 NO 13
Ieri h: 16:55 nuvoloso Nuvoloso 29 23 70 1016 10 SE 9.3
Ieri h: 15:55 nuvoloso Nuvoloso 28 24 78 1016 10 E/NE 11.1
Ieri h: 14:55 coperto_temporali Temporale 31 21 55 1016 10 SE 22.2
Ieri h: 13:55 nuvoloso Nuvoloso 33 23 55 1016 10 S 14.8
Ieri h: 12:55 nuvoloso Nuvoloso 32 24 62 1016 10 N 5.5
Ieri h: 11:55 nuvoloso Nuvoloso 29 22 66 1017 10 N 5.5
Ieri h: 10:55 nuvoloso Nuvoloso 29 23 70 1017 10 N 5.5
Ieri h: 09:55 poco_nuvoloso Poco Nuvoloso 26 22 78 1017 10 N/NO 9.3
Ieri h: 08:55 poco_nuvoloso Poco Nuvoloso 24 20 78 1017 10 N 9.3
Ieri h: 07:55 poco_nuvoloso Poco Nuvoloso 22 18 78 1016 10 N 3.7